Volga-4011 — UBNJ — position and weather

sailwx.info

Track history (hours):
 
Tides and Currents Weather Stations Pressure Air Temp Water Temp Dewpoint Dewpoint Depression Visibility Wind Speed Wind Dir Waves Ship Positions

Volga-4011

Last reported at 2015-May-27 06:32 UTC. Time now 2015-May-27 20:04 UTC.
Position N 31°02' E 122°43'.

Length 140 m; draft 4.6 m.

Type: Cargo ship. MMSI: 273358200.

Date/timePositionNaut miles runAvg speedWind from/ knotsBaromVisibWave heightAir tempDewpointWater temp
2015-May-27 06:32N 31°02' E 122°43'9 8.6
2015-May-27 05:27N 31°07' E 122°52'9 8.6
2015-May-27 04:25N 31°11' E 123°01'63 8.0
2015-May-26 20:32N 31°44' E 124°05'9 8.7
2015-May-26 19:33N 31°48' E 124°14'9 9.0
2015-May-26 18:33N 31°53' E 124°22'9 9.2
2015-May-26 17:33N 31°58' E 124°32'9 9.3
2015-May-26 16:33N 32°02' E 124°42'9 9.0
2015-May-26 15:33N 32°06' E 124°51'10 8.9
2015-May-26 14:22N 32°12' E 125°01'  
Track history (hours):
 
Tides and Currents Weather Stations Pressure Air Temp Water Temp Dewpoint Dewpoint Depression Visibility Wind Speed Wind Dir Waves Ship Positions

Volga-4011

Last reported at 2015-May-27 06:32 UTC. Time now 2015-May-27 20:04 UTC.
Position N 31°02' E 122°43'.

Length 140 m; draft 4.6 m.

Type: Cargo ship. MMSI: 273358200.

Date/timePositionNaut miles runAvg speedWind from/ knotsBaromVisibWave heightAir tempDewpointWater temp
2015-May-27 06:32N 31°02' E 122°43'9 8.6
2015-May-27 05:27N 31°07' E 122°52'9 8.6
2015-May-27 04:25N 31°11' E 123°01'63 8.0
2015-May-26 20:32N 31°44' E 124°05'9 8.7
2015-May-26 19:33N 31°48' E 124°14'9 9.0
2015-May-26 18:33N 31°53' E 124°22'9 9.2
2015-May-26 17:33N 31°58' E 124°32'9 9.3
2015-May-26 16:33N 32°02' E 124°42'9 9.0
2015-May-26 15:33N 32°06' E 124°51'10 8.9
2015-May-26 14:22N 32°12' E 125°01'  

Dump ship's entire track history